Terminal Aerodrome Forecast
Issued by NWS

Current Version | Previous Version | Text Only | Print | Product List | Glossary On
Versions: 1 2 3 4 5 6 7 8 9 10 11 12 13 14 15
000
FTUS42 TJSJ 191700
TAFJBQ
TAF
TJBQ 191734Z 1918/2018 07010KT P6SM FEW025
     FM191900 VRB08KT P6SM VCTS SCT025CB
      TEMPO 1919/1921 VRB15KT 5SM TSRA BKN025CB
     FM192300 09008KT P6SM SCT025 BKN070
     FM201400 08013KT P6SM SCT025
      AMD NOT SKED 2002/2011=

USA.gov is the U.S. government's official web portal to all federal, state and local government web resources and services.